createdAt,value
2018-03-21T00:00:54.694Z,7.10
2018-03-21T00:01:54.671Z,9.60
2018-03-21T00:02:54.656Z,8.70
2018-03-21T00:03:54.624Z,7.30
2018-03-21T00:04:54.651Z,6.50
2018-03-21T00:05:54.591Z,9.00
2018-03-21T00:06:54.563Z,7.30
2018-03-21T00:07:54.536Z,9.30
2018-03-21T00:08:54.512Z,9.90
2018-03-21T00:09:54.493Z,9.10
2018-03-21T00:10:54.470Z,8.20
2018-03-21T00:11:54.439Z,9.40
2018-03-21T00:12:54.420Z,7.60
2018-03-21T00:13:54.400Z,7.60
2018-03-21T00:14:54.377Z,8.50
2018-03-21T00:15:54.360Z,8.40
2018-03-21T00:16:54.330Z,8.90
2018-03-21T00:17:54.310Z,9.20
2018-03-21T00:18:54.306Z,8.70
2018-03-21T00:19:54.270Z,6.90
2018-03-21T00:20:54.239Z,7.10
2018-03-21T00:21:54.217Z,8.60
2018-03-21T00:22:54.202Z,8.10
2018-03-21T00:23:54.171Z,7.10
2018-03-21T00:24:54.147Z,8.80
2018-03-21T00:25:54.126Z,7.90
2018-03-21T00:26:54.104Z,6.40
2018-03-21T00:27:54.081Z,8.80
2018-03-21T00:28:54.059Z,8.20
2018-03-21T00:29:54.044Z,7.20
2018-03-21T00:30:54.010Z,10.40
2018-03-21T00:31:53.990Z,7.10
2018-03-21T00:32:53.968Z,7.50
2018-03-21T00:33:53.952Z,11.70
2018-03-21T00:34:53.930Z,9.70
2018-03-21T00:35:53.901Z,6.80
2018-03-21T00:36:53.879Z,7.10
2018-03-21T00:37:53.855Z,8.00
2018-03-21T00:38:53.833Z,6.50
2018-03-21T00:39:53.811Z,6.60
2018-03-21T00:40:53.793Z,8.50
2018-03-21T00:41:53.775Z,7.00
2018-03-21T00:42:53.750Z,6.70
2018-03-21T00:43:53.718Z,10.00
2018-03-21T00:44:53.699Z,9.70
2018-03-21T00:45:53.675Z,11.00
2018-03-21T00:46:53.650Z,6.90
2018-03-21T00:47:53.628Z,7.10
2018-03-21T00:48:53.610Z,8.90
2018-03-21T00:49:53.584Z,10.20
2018-03-21T00:50:53.573Z,9.50
2018-03-21T00:51:53.537Z,8.70
2018-03-21T00:52:53.514Z,8.20
2018-03-21T00:53:53.495Z,7.60
2018-03-21T00:54:53.470Z,7.40
2018-03-21T00:55:53.446Z,7.40
2018-03-21T00:56:53.423Z,9.40
2018-03-21T00:57:53.407Z,8.90
2018-03-21T00:58:53.390Z,7.00
2018-03-21T00:59:53.362Z,9.10
2018-03-21T01:00:53.338Z,8.60
2018-03-21T01:01:53.313Z,8.00
2018-03-21T01:02:53.289Z,9.80
2018-03-21T01:03:53.265Z,7.30
2018-03-21T01:04:53.248Z,8.00
2018-03-21T01:05:53.221Z,6.40
2018-03-21T01:06:53.200Z,9.10
2018-03-21T01:07:53.176Z,7.80
2018-03-21T01:08:53.154Z,7.90
2018-03-21T01:09:53.128Z,6.10
2018-03-21T01:10:53.108Z,7.80
2018-03-21T01:11:53.087Z,8.30
2018-03-21T01:12:53.068Z,10.10
2018-03-21T01:13:53.046Z,8.20
2018-03-21T01:14:53.020Z,7.00
2018-03-21T01:15:53.000Z,6.50
2018-03-21T01:16:52.979Z,7.60
2018-03-21T01:17:52.953Z,7.40
2018-03-21T01:18:52.932Z,7.20
2018-03-21T01:19:52.911Z,6.70
2018-03-21T01:20:52.890Z,9.20
2018-03-21T01:21:52.860Z,8.50
2018-03-21T01:22:52.845Z,8.60
2018-03-21T01:23:52.821Z,7.70
2018-03-21T01:24:52.793Z,8.40
2018-03-21T01:25:52.770Z,7.20
2018-03-21T01:26:52.749Z,10.80
2018-03-21T01:27:52.738Z,9.40
2018-03-21T01:28:52.714Z,9.10
2018-03-21T01:29:52.693Z,8.40
2018-03-21T01:30:52.661Z,7.70
2018-03-21T01:31:52.636Z,12.30
2018-03-21T01:32:52.617Z,9.30
2018-03-21T01:33:52.592Z,7.80
2018-03-21T01:34:52.570Z,11.40
2018-03-21T01:35:52.550Z,7.60
2018-03-21T01:36:52.531Z,7.10
2018-03-21T01:37:52.499Z,7.70
2018-03-21T01:38:52.477Z,12.50
2018-03-21T01:39:52.460Z,7.10
2018-03-21T01:40:52.436Z,8.60
2018-03-21T01:41:52.410Z,8.50
2018-03-21T01:42:52.389Z,10.70
2018-03-21T01:43:52.370Z,8.70
2018-03-21T01:44:52.345Z,7.40
2018-03-21T01:45:52.319Z,9.30
2018-03-21T01:46:52.299Z,10.40
2018-03-21T01:47:52.275Z,8.60
2018-03-21T01:48:52.256Z,8.30
2018-03-21T01:49:52.229Z,8.40
2018-03-21T01:50:52.221Z,9.70
2018-03-21T01:51:52.190Z,9.90
2018-03-21T01:52:52.160Z,8.60
2018-03-21T01:53:52.141Z,9.30
2018-03-21T01:54:52.120Z,9.30
2018-03-21T01:55:52.097Z,9.70
2018-03-21T01:56:52.079Z,10.70
2018-03-21T01:57:52.050Z,9.20
2018-03-21T01:58:52.030Z,8.30
2018-03-21T01:59:52.008Z,10.30
2018-03-21T02:00:51.985Z,7.90
2018-03-21T02:01:51.957Z,12.90
2018-03-21T02:02:51.935Z,12.00
2018-03-21T02:03:51.917Z,8.60
2018-03-21T02:04:51.891Z,8.70
2018-03-21T02:05:51.874Z,9.40
2018-03-21T02:06:51.846Z,7.70
2018-03-21T02:07:51.828Z,10.10
2018-03-21T02:08:51.810Z,9.00
2018-03-21T02:09:51.780Z,8.50
2018-03-21T02:10:51.770Z,6.50
2018-03-21T02:11:51.742Z,7.70
2018-03-21T02:12:51.711Z,8.20
2018-03-21T02:13:51.689Z,11.10
2018-03-21T02:14:51.670Z,8.70
2018-03-21T02:15:51.697Z,9.30
2018-03-21T02:16:51.619Z,10.30
2018-03-21T02:17:51.612Z,7.90
2018-03-21T02:18:51.579Z,8.10
2018-03-21T02:19:51.553Z,7.30
2018-03-21T02:20:51.535Z,7.90
2018-03-21T02:21:51.562Z,7.40
2018-03-21T02:22:51.498Z,9.30
2018-03-21T02:23:51.465Z,10.20
2018-03-21T02:24:51.438Z,7.80
2018-03-21T02:25:51.432Z,6.90
2018-03-21T02:26:51.407Z,7.90
2018-03-21T02:27:51.384Z,6.20
2018-03-21T02:28:51.350Z,8.10
2018-03-21T02:29:51.329Z,9.10
2018-03-21T02:30:51.310Z,11.80
2018-03-21T02:31:51.331Z,9.20
2018-03-21T02:32:51.261Z,8.40
2018-03-21T02:33:51.243Z,7.80
2018-03-21T02:34:51.214Z,9.50
2018-03-21T02:35:51.188Z,9.20
2018-03-21T02:36:51.176Z,11.00
2018-03-21T02:37:51.148Z,7.90
2018-03-21T02:38:51.130Z,7.90
2018-03-21T02:39:51.105Z,6.20
2018-03-21T02:40:51.078Z,6.30
2018-03-21T02:41:51.057Z,8.70
2018-03-21T02:42:51.043Z,7.20
2018-03-21T02:43:51.012Z,7.00
2018-03-21T02:44:50.996Z,7.70
2018-03-21T02:45:50.977Z,9.50
2018-03-21T02:46:50.947Z,7.80
2018-03-21T02:47:50.919Z,7.30
2018-03-21T02:48:50.913Z,8.00
2018-03-21T02:49:50.877Z,7.60
2018-03-21T02:50:50.858Z,11.50
2018-03-21T02:51:50.829Z,9.00
2018-03-21T02:52:50.810Z,10.00
2018-03-21T02:53:50.790Z,7.50
2018-03-21T02:54:50.765Z,11.90
2018-03-21T02:55:50.744Z,7.80
2018-03-21T02:56:50.720Z,7.30
2018-03-21T02:57:50.705Z,8.40
2018-03-21T02:58:50.671Z,8.80
2018-03-21T02:59:50.646Z,9.20
2018-03-21T03:00:50.627Z,10.80
2018-03-21T03:01:50.610Z,8.90
2018-03-21T03:02:50.582Z,8.20
2018-03-21T03:03:50.565Z,9.80
2018-03-21T03:04:50.541Z,7.90
2018-03-21T03:05:50.510Z,7.60
2018-03-21T03:06:50.493Z,8.00
2018-03-21T03:07:50.470Z,10.10
2018-03-21T03:08:50.498Z,9.80
2018-03-21T03:09:50.424Z,8.10
2018-03-21T03:10:50.399Z,11.40
2018-03-21T03:11:50.381Z,8.50
2018-03-21T03:12:50.357Z,11.50
2018-03-21T03:13:50.331Z,6.40
2018-03-21T03:14:50.309Z,8.00
2018-03-21T03:15:50.288Z,7.90
2018-03-21T03:16:50.263Z,10.20
2018-03-21T03:17:50.240Z,10.10
2018-03-21T03:18:50.214Z,7.50
2018-03-21T03:19:50.192Z,9.10
2018-03-21T03:20:50.169Z,11.00
2018-03-21T03:21:50.145Z,7.60
2018-03-21T03:22:50.123Z,10.00
2018-03-21T03:23:50.099Z,11.10
2018-03-21T03:24:50.077Z,9.30
2018-03-21T03:25:50.060Z,8.50
2018-03-21T03:26:50.040Z,11.80
2018-03-21T03:27:50.016Z,9.20
2018-03-21T03:28:49.991Z,9.90
2018-03-21T03:29:49.963Z,10.40
2018-03-21T03:30:49.945Z,8.50
2018-03-21T03:31:49.917Z,10.30
2018-03-21T03:32:49.896Z,10.60
2018-03-21T03:33:49.884Z,12.30
2018-03-21T03:34:49.851Z,11.30
2018-03-21T03:35:49.825Z,12.50
2018-03-21T03:36:49.808Z,12.20
2018-03-21T03:37:49.781Z,11.40
2018-03-21T03:38:49.762Z,13.60
2018-03-21T03:39:49.741Z,10.30
2018-03-21T03:40:49.711Z,10.50
2018-03-21T03:41:49.690Z,13.20
2018-03-21T03:42:49.668Z,8.60
2018-03-21T03:43:49.640Z,11.80
2018-03-21T03:44:49.620Z,12.50
2018-03-21T03:45:49.599Z,12.10
2018-03-21T03:46:49.577Z,12.20
2018-03-21T03:47:49.552Z,10.60
2018-03-21T03:48:49.524Z,10.30
2018-03-21T03:49:49.510Z,12.40
2018-03-21T03:50:49.482Z,10.40
2018-03-21T03:51:49.458Z,9.90
2018-03-21T03:52:49.441Z,13.80
2018-03-21T03:53:49.418Z,12.50
2018-03-21T03:54:49.391Z,11.00
2018-03-21T03:55:49.370Z,13.10
2018-03-21T03:56:49.351Z,10.00
2018-03-21T03:57:49.328Z,10.70
2018-03-21T03:58:49.300Z,7.30
2018-03-21T03:59:49.276Z,10.40
2018-03-21T04:00:49.250Z,11.70
2018-03-21T04:01:49.230Z,15.20
2018-03-21T04:02:49.206Z,10.30
2018-03-21T04:03:49.194Z,11.30
2018-03-21T04:04:49.161Z,8.10
2018-03-21T04:05:49.139Z,8.30
2018-03-21T04:06:49.116Z,10.50
2018-03-21T04:07:49.093Z,9.60
2018-03-21T04:08:49.069Z,12.60
2018-03-21T04:09:49.047Z,14.10
2018-03-21T04:10:49.020Z,12.70
2018-03-21T04:11:49.001Z,11.20
2018-03-21T04:12:48.980Z,12.40
2018-03-21T04:13:48.959Z,12.70
2018-03-21T04:14:48.929Z,15.40
2018-03-21T04:15:48.912Z,11.60
2018-03-21T04:16:48.886Z,11.50
2018-03-21T04:17:48.862Z,13.40
2018-03-21T04:18:48.841Z,10.00
2018-03-21T04:19:48.815Z,13.50
2018-03-21T04:20:48.794Z,10.80
2018-03-21T04:21:48.770Z,15.40
2018-03-21T04:22:48.749Z,14.40
2018-03-21T04:23:48.728Z,16.00
2018-03-21T04:24:48.753Z,13.80
2018-03-21T04:25:48.683Z,10.70
2018-03-21T04:26:48.705Z,10.20
2018-03-21T04:27:48.629Z,14.70
2018-03-21T04:28:48.617Z,15.50
2018-03-21T04:29:48.588Z,14.30
2018-03-21T04:30:48.562Z,14.80
2018-03-21T04:31:48.541Z,12.60
2018-03-21T04:32:48.523Z,15.70
2018-03-21T04:33:48.493Z,14.10
2018-03-21T04:34:48.470Z,14.10
2018-03-21T04:35:48.449Z,12.10
2018-03-21T04:36:48.476Z,14.60
2018-03-21T04:37:48.407Z,12.00
2018-03-21T04:38:48.441Z,13.90
2018-03-21T04:39:48.360Z,13.60
2018-03-21T04:40:48.376Z,15.90
2018-03-21T04:41:48.312Z,12.50
2018-03-21T04:42:48.385Z,13.50
2018-03-21T04:43:48.263Z,13.30
2018-03-21T04:44:48.292Z,14.90
2018-03-21T04:45:48.214Z,19.00
2018-03-21T04:46:48.252Z,19.20
2018-03-21T04:47:48.179Z,13.90
2018-03-21T04:48:48.201Z,12.00
2018-03-21T04:49:48.131Z,16.30
2018-03-21T04:50:48.161Z,14.40
2018-03-21T04:51:48.080Z,12.70
2018-03-21T04:52:48.163Z,17.00
2018-03-21T04:53:48.041Z,19.10
2018-03-21T04:54:48.063Z,17.90
2018-03-21T04:55:47.987Z,14.90
2018-03-21T04:56:47.970Z,14.30
2018-03-21T04:57:47.941Z,13.70
2018-03-21T04:58:47.920Z,17.90
2018-03-21T04:59:47.901Z,16.70
2018-03-21T05:00:47.871Z,13.70
2018-03-21T05:01:47.847Z,15.60
2018-03-21T05:02:47.824Z,16.20
2018-03-21T05:03:47.809Z,14.80
2018-03-21T05:04:47.779Z,14.80
2018-03-21T05:05:47.759Z,13.50
2018-03-21T05:06:47.735Z,16.70
2018-03-21T05:07:47.709Z,13.20
2018-03-21T05:08:47.691Z,13.40
2018-03-21T05:09:47.668Z,13.50
2018-03-21T05:10:47.641Z,13.60
2018-03-21T05:11:47.619Z,14.20
2018-03-21T05:12:47.601Z,16.70
2018-03-21T05:13:47.578Z,14.30
2018-03-21T05:14:47.550Z,12.70
2018-03-21T05:15:47.530Z,11.90
2018-03-21T05:16:47.501Z,13.20
2018-03-21T05:17:47.484Z,15.50
2018-03-21T05:18:47.459Z,13.80
2018-03-21T05:19:47.445Z,13.00
2018-03-21T05:20:47.408Z,12.40
2018-03-21T05:21:47.388Z,15.50
2018-03-21T05:22:47.361Z,18.40
2018-03-21T05:23:47.350Z,14.50
2018-03-21T05:24:47.320Z,12.80
2018-03-21T05:25:47.292Z,12.60
2018-03-21T05:26:47.269Z,15.80
2018-03-21T05:27:47.248Z,16.50
2018-03-21T05:28:47.220Z,13.40
2018-03-21T05:29:47.197Z,15.90
2018-03-21T05:30:47.184Z,17.30
2018-03-21T05:31:47.166Z,15.10
2018-03-21T05:32:47.135Z,15.20
2018-03-21T05:33:47.107Z,13.30
2018-03-21T05:34:47.084Z,17.70
2018-03-21T05:35:47.067Z,14.50
2018-03-21T05:36:47.040Z,14.40
2018-03-21T05:37:47.016Z,14.70
2018-03-21T05:38:46.991Z,16.40
2018-03-21T05:39:46.970Z,16.30
2018-03-21T05:40:46.948Z,13.00
2018-03-21T05:41:46.931Z,19.40
2018-03-21T05:42:46.900Z,16.80
2018-03-21T05:43:46.878Z,16.50
2018-03-21T05:44:46.853Z,13.40
2018-03-21T05:45:46.829Z,13.00
2018-03-21T05:46:46.811Z,13.70
2018-03-21T05:47:46.788Z,17.90
2018-03-21T05:48:46.769Z,15.70
2018-03-21T05:49:46.739Z,14.90
2018-03-21T05:50:46.718Z,17.40
2018-03-21T05:51:46.692Z,16.10
2018-03-21T05:52:46.670Z,16.40
2018-03-21T05:53:46.643Z,14.50
2018-03-21T05:54:46.630Z,13.80
2018-03-21T05:55:46.598Z,14.60
2018-03-21T05:56:46.626Z,14.80
2018-03-21T05:57:46.560Z,17.30
2018-03-21T05:58:46.529Z,18.70
2018-03-21T05:59:46.509Z,16.50
2018-03-21T06:00:46.488Z,16.60
2018-03-21T06:01:46.459Z,17.00
2018-03-21T06:02:46.440Z,13.70
2018-03-21T06:03:46.415Z,14.20
2018-03-21T06:04:46.398Z,16.30
2018-03-21T06:05:46.372Z,22.80
2018-03-21T06:06:46.344Z,14.20
2018-03-21T06:07:46.321Z,19.20
2018-03-21T06:08:46.305Z,17.80
2018-03-21T06:09:46.284Z,19.40
2018-03-21T06:10:46.259Z,18.30
2018-03-21T06:11:46.230Z,19.20
2018-03-21T06:12:46.207Z,17.10
2018-03-21T06:13:46.190Z,17.60
2018-03-21T06:14:46.165Z,18.30
2018-03-21T06:15:46.148Z,21.30
2018-03-21T06:16:46.119Z,17.20
2018-03-21T06:17:46.098Z,22.10
2018-03-21T06:18:46.069Z,18.40
2018-03-21T06:19:46.050Z,20.50
2018-03-21T06:20:46.026Z,23.40
2018-03-21T06:21:46.000Z,19.90
2018-03-21T06:22:45.980Z,18.40
2018-03-21T06:23:45.958Z,20.60
2018-03-21T06:24:45.935Z,18.90
2018-03-21T06:25:45.909Z,15.90
2018-03-21T06:26:45.893Z,19.40
2018-03-21T06:27:45.868Z,18.30
2018-03-21T06:28:45.842Z,17.20
2018-03-21T06:29:45.818Z,19.30
2018-03-21T06:30:45.796Z,23.50
2018-03-21T06:31:45.770Z,19.20
2018-03-21T06:32:45.748Z,15.70
2018-03-21T06:33:45.725Z,18.60
2018-03-21T06:34:45.699Z,21.70
2018-03-21T06:35:45.679Z,17.70
2018-03-21T06:36:45.651Z,21.60
2018-03-21T06:37:45.627Z,21.20
2018-03-21T06:38:45.610Z,27.10
2018-03-21T06:39:45.581Z,21.40
2018-03-21T06:40:45.559Z,23.00
2018-03-21T06:41:45.589Z,22.20
2018-03-21T06:42:45.512Z,22.00
2018-03-21T06:43:45.542Z,28.50
2018-03-21T06:44:45.463Z,21.50
2018-03-21T06:45:45.542Z,22.60
2018-03-21T06:46:45.422Z,23.90
2018-03-21T06:47:45.390Z,23.80
2018-03-21T06:48:45.367Z,23.40
2018-03-21T06:49:45.501Z,25.80
2018-03-21T06:50:45.327Z,21.60
2018-03-21T06:51:45.449Z,24.90
2018-03-21T06:52:45.272Z,24.00
2018-03-21T06:53:45.358Z,22.00
2018-03-21T06:54:45.230Z,21.80
2018-03-21T06:55:45.220Z,23.70
2018-03-21T06:56:45.180Z,21.50
2018-03-21T06:57:45.210Z,20.50
2018-03-21T06:58:45.140Z,22.00
2018-03-21T06:59:45.115Z,22.20
2018-03-21T07:00:45.090Z,22.60
2018-03-21T07:01:45.088Z,21.20
2018-03-21T07:02:45.044Z,21.90
2018-03-21T07:03:45.015Z,19.60
2018-03-21T07:04:44.991Z,21.20
2018-03-21T07:05:44.979Z,20.50
2018-03-21T07:06:44.949Z,20.90
2018-03-21T07:07:44.925Z,21.30
2018-03-21T07:08:44.899Z,19.70
2018-03-21T07:09:44.929Z,20.90
2018-03-21T07:10:44.852Z,21.50
2018-03-21T07:11:44.842Z,20.70
2018-03-21T07:12:44.805Z,22.10
2018-03-21T07:13:44.783Z,22.80
2018-03-21T07:14:44.759Z,21.30
2018-03-21T07:15:44.735Z,21.10
2018-03-21T07:16:44.721Z,21.10
2018-03-21T07:17:44.687Z,43.70
2018-03-21T07:18:44.669Z,22.80
2018-03-21T07:19:44.641Z,23.30
2018-03-21T07:20:44.621Z,54.40
2018-03-21T07:21:44.600Z,38.40
2018-03-21T07:22:44.574Z,19.70
2018-03-21T07:23:44.551Z,21.10
2018-03-21T07:24:44.532Z,21.00
2018-03-21T07:25:44.513Z,21.80
2018-03-21T07:26:44.481Z,21.50
2018-03-21T07:27:44.458Z,19.10
2018-03-21T07:28:44.433Z,20.40
2018-03-21T07:29:44.410Z,23.20
2018-03-21T07:30:44.391Z,20.40
2018-03-21T07:31:44.363Z,20.50
2018-03-21T07:32:44.341Z,19.50
2018-03-21T07:33:44.318Z,19.30
2018-03-21T07:34:44.292Z,20.50
2018-03-21T07:35:44.270Z,20.40
2018-03-21T07:36:44.251Z,20.30
2018-03-21T07:37:44.233Z,24.30
2018-03-21T07:38:44.207Z,21.80
2018-03-21T07:39:44.180Z,21.70
2018-03-21T07:40:44.158Z,22.60
2018-03-21T07:41:44.135Z,22.90
2018-03-21T07:42:44.109Z,21.40
2018-03-21T07:43:44.085Z,23.40
2018-03-21T07:44:44.063Z,21.80
2018-03-21T07:45:44.040Z,21.80
2018-03-21T07:46:44.020Z,21.10
2018-03-21T07:47:44.004Z,24.30
2018-03-21T07:48:43.973Z,27.30
2018-03-21T07:49:43.949Z,25.20
2018-03-21T07:50:43.933Z,21.90
2018-03-21T07:51:43.911Z,25.00
2018-03-21T07:52:43.879Z,24.20
2018-03-21T07:53:43.860Z,24.10
2018-03-21T07:54:43.840Z,19.40
2018-03-21T07:55:43.811Z,23.90
2018-03-21T07:56:43.856Z,22.80
2018-03-21T07:57:43.768Z,23.60
2018-03-21T07:58:43.748Z,22.40
2018-03-21T07:59:43.731Z,23.20
2018-03-21T08:00:43.705Z,21.10
2018-03-21T08:01:43.678Z,22.00
2018-03-21T08:02:43.654Z,26.70
2018-03-21T08:03:43.630Z,57.60
2018-03-21T08:04:43.606Z,36.30
2018-03-21T08:05:43.582Z,25.80
2018-03-21T08:06:43.570Z,29.90
2018-03-21T08:07:43.545Z,23.90
2018-03-21T08:08:43.519Z,25.10
2018-03-21T08:09:43.496Z,21.60
2018-03-21T08:10:43.472Z,21.60
2018-03-21T08:11:43.450Z,24.60
2018-03-21T08:12:43.431Z,22.70
2018-03-21T08:13:43.410Z,24.00
2018-03-21T08:14:43.393Z,26.30
2018-03-21T08:15:43.361Z,23.70
2018-03-21T08:16:43.339Z,22.30
2018-03-21T08:17:43.316Z,22.70
2018-03-21T08:18:43.295Z,26.90
2018-03-21T08:19:43.271Z,24.90
2018-03-21T08:20:43.255Z,24.60
2018-03-21T08:21:43.233Z,27.50
2018-03-21T08:22:43.211Z,26.20
2018-03-21T08:23:43.181Z,23.30
2018-03-21T08:24:43.160Z,24.00
2018-03-21T08:25:43.140Z,22.70
2018-03-21T08:26:43.118Z,23.00
2018-03-21T08:27:43.098Z,26.40
2018-03-21T08:28:43.070Z,22.00
2018-03-21T08:29:43.046Z,23.60
2018-03-21T08:30:43.023Z,19.90
2018-03-21T08:31:43.003Z,24.10
2018-03-21T08:32:42.980Z,22.30
2018-03-21T08:33:42.976Z,22.90
2018-03-21T08:34:42.937Z,20.20
2018-03-21T08:35:42.919Z,23.00
2018-03-21T08:36:42.891Z,24.30
2018-03-21T08:37:42.874Z,20.80
2018-03-21T08:38:42.851Z,21.00
2018-03-21T08:39:42.831Z,19.20
2018-03-21T08:40:42.803Z,21.20
2018-03-21T08:41:42.791Z,20.90
2018-03-21T08:42:42.760Z,23.30
2018-03-21T08:43:42.743Z,21.10
2018-03-21T08:44:42.720Z,20.00
2018-03-21T08:45:42.691Z,20.40
2018-03-21T08:46:42.677Z,20.60
2018-03-21T08:47:42.650Z,18.90
2018-03-21T08:48:42.626Z,21.60
2018-03-21T08:49:42.636Z,22.60
2018-03-21T08:50:42.585Z,22.90
2018-03-21T08:51:42.560Z,22.50
2018-03-21T08:52:42.540Z,21.80
2018-03-21T08:53:42.518Z,24.30
2018-03-21T08:54:42.499Z,25.60
2018-03-21T08:55:42.484Z,21.80
2018-03-21T08:56:42.510Z,25.70
2018-03-21T08:57:42.434Z,22.40
2018-03-21T08:58:42.510Z,22.90
2018-03-21T08:59:42.392Z,26.50
2018-03-21T09:00:42.414Z,28.40
2018-03-21T09:01:42.343Z,22.10
2018-03-21T09:02:42.420Z,25.30
2018-03-21T09:03:42.300Z,24.60
2018-03-21T09:04:42.375Z,24.50
2018-03-21T09:05:42.260Z,25.70
2018-03-21T09:06:42.235Z,22.30
2018-03-21T09:07:42.228Z,22.20
2018-03-21T09:08:42.289Z,22.60
2018-03-21T09:09:42.171Z,22.40
2018-03-21T09:10:42.295Z,21.30
2018-03-21T09:11:42.123Z,22.00
2018-03-21T09:12:42.136Z,19.80
2018-03-21T09:13:42.086Z,21.40
2018-03-21T09:14:42.063Z,19.80
2018-03-21T09:15:42.044Z,22.20
2018-03-21T09:16:42.220Z,19.80
2018-03-21T09:17:41.995Z,20.60
2018-03-21T09:18:42.085Z,17.10
2018-03-21T09:19:41.970Z,19.50
2018-03-21T09:20:41.939Z,20.10
2018-03-21T09:21:41.919Z,17.50
2018-03-21T09:22:41.893Z,18.90
2018-03-21T09:23:41.880Z,20.50
2018-03-21T09:24:41.855Z,17.30
2018-03-21T09:25:41.838Z,19.40
2018-03-21T09:26:41.814Z,18.00
2018-03-21T09:27:41.789Z,18.00
2018-03-21T09:28:41.919Z,19.80
2018-03-21T09:29:41.751Z,16.60
2018-03-21T09:30:41.729Z,15.50
2018-03-21T09:31:41.724Z,16.50
2018-03-21T09:32:41.686Z,18.30
2018-03-21T09:33:41.722Z,19.20
2018-03-21T09:34:41.649Z,17.50
2018-03-21T09:35:41.630Z,19.30
2018-03-21T09:36:41.604Z,19.80
2018-03-21T09:37:41.585Z,15.90
2018-03-21T09:38:41.564Z,18.80
2018-03-21T09:39:41.540Z,16.60
2018-03-21T09:40:41.518Z,16.90
2018-03-21T09:41:41.510Z,17.20
2018-03-21T09:42:41.479Z,14.80
2018-03-21T09:43:41.467Z,18.70
2018-03-21T09:44:41.449Z,14.30
2018-03-21T09:45:41.429Z,16.10
2018-03-21T09:46:41.397Z,17.70
2018-03-21T09:47:41.374Z,16.20
2018-03-21T09:48:41.425Z,19.40
2018-03-21T09:49:41.353Z,15.60
2018-03-21T09:50:41.313Z,14.40
2018-03-21T09:51:41.296Z,17.50
2018-03-21T09:52:41.279Z,16.30
2018-03-21T09:53:41.254Z,16.10
2018-03-21T09:54:41.241Z,17.80
2018-03-21T09:55:41.213Z,19.40
2018-03-21T09:56:41.193Z,13.70
2018-03-21T09:57:41.179Z,19.00
2018-03-21T09:58:41.156Z,15.00
2018-03-21T09:59:41.140Z,13.80
2018-03-21T10:00:41.158Z,16.90
2018-03-21T10:01:41.107Z,16.40
2018-03-21T10:02:41.099Z,17.70
2018-03-21T10:03:41.071Z,16.40
2018-03-21T10:04:41.054Z,15.60
2018-03-21T10:05:41.031Z,14.00
2018-03-21T10:06:41.057Z,15.70
2018-03-21T10:07:41.003Z,13.80
2018-03-21T10:08:41.040Z,13.30
2018-03-21T10:09:40.961Z,14.60
2018-03-21T10:10:40.942Z,14.80
2018-03-21T10:11:40.923Z,12.90
2018-03-21T10:12:40.911Z,12.80
2018-03-21T10:13:40.901Z,18.00
2018-03-21T10:14:40.871Z,14.50
2018-03-21T10:15:40.852Z,13.60
2018-03-21T10:16:40.904Z,12.00
2018-03-21T10:17:40.818Z,17.30
2018-03-21T10:18:40.807Z,14.50
2018-03-21T10:19:40.782Z,16.30
2018-03-21T10:20:40.765Z,11.80
2018-03-21T10:21:40.740Z,15.50
2018-03-21T10:22:40.726Z,13.90
2018-03-21T10:23:40.772Z,17.80
2018-03-21T10:24:40.687Z,15.10
2018-03-21T10:25:40.661Z,18.30
2018-03-21T10:26:40.650Z,15.70
2018-03-21T10:27:40.628Z,15.40
2018-03-21T10:28:40.609Z,15.30
2018-03-21T10:29:40.589Z,14.10
2018-03-21T10:30:40.653Z,13.30
2018-03-21T10:31:40.559Z,13.30
2018-03-21T10:32:40.528Z,15.30
2018-03-21T10:33:40.510Z,16.00
2018-03-21T10:34:40.545Z,14.20
2018-03-21T10:35:40.480Z,14.70
2018-03-21T10:36:40.530Z,12.50
2018-03-21T10:37:40.430Z,16.40
2018-03-21T10:38:40.420Z,15.40
2018-03-21T10:39:40.405Z,15.40
2018-03-21T10:40:40.390Z,15.70
2018-03-21T10:41:40.361Z,14.20
2018-03-21T10:42:40.515Z,15.60
2018-03-21T10:43:40.322Z,16.10
2018-03-21T10:44:40.301Z,13.40
2018-03-21T10:45:40.281Z,15.70
2018-03-21T10:46:40.260Z,13.50
2018-03-21T10:47:40.251Z,12.00
2018-03-21T10:48:40.238Z,11.50
2018-03-21T10:49:40.205Z,12.00
2018-03-21T10:50:40.187Z,13.10
2018-03-21T10:51:40.167Z,16.80
2018-03-21T10:52:40.149Z,16.50
2018-03-21T10:53:40.128Z,13.30
2018-03-21T10:54:40.110Z,13.50
2018-03-21T10:55:40.090Z,12.00
2018-03-21T10:56:40.069Z,14.60
2018-03-21T10:57:40.059Z,17.50
2018-03-21T10:58:40.033Z,15.40
2018-03-21T10:59:40.013Z,13.20
2018-03-21T11:00:39.998Z,11.00
2018-03-21T11:01:39.979Z,14.10
2018-03-21T11:02:39.960Z,16.10
2018-03-21T11:03:39.941Z,14.70
2018-03-21T11:04:39.920Z,12.10
2018-03-21T11:05:39.901Z,14.40
2018-03-21T11:06:39.883Z,15.20
2018-03-21T11:07:39.920Z,12.30
2018-03-21T11:08:39.839Z,15.40
2018-03-21T11:09:39.829Z,13.30
2018-03-21T11:10:39.800Z,16.00
2018-03-21T11:11:39.796Z,15.90
2018-03-21T11:12:39.765Z,16.90
2018-03-21T11:13:39.741Z,24.40
2018-03-21T11:14:39.720Z,18.70
2018-03-21T11:15:39.713Z,17.30
2018-03-21T11:16:39.685Z,20.50
2018-03-21T11:17:39.661Z,19.60
2018-03-21T11:18:39.654Z,16.00
2018-03-21T11:19:39.623Z,19.40
2018-03-21T11:20:39.602Z,14.10
2018-03-21T11:21:39.581Z,22.30
2018-03-21T11:22:39.562Z,18.50
2018-03-21T11:23:39.543Z,14.20
2018-03-21T11:24:39.520Z,15.00
2018-03-21T11:25:39.504Z,16.10
2018-03-21T11:26:39.490Z,13.00
2018-03-21T11:27:39.463Z,19.00
2018-03-21T11:28:39.438Z,17.40
2018-03-21T11:29:39.420Z,16.20
2018-03-21T11:30:39.413Z,16.80
2018-03-21T11:31:39.380Z,18.30
2018-03-21T11:32:39.360Z,16.30
2018-03-21T11:33:39.340Z,17.00
2018-03-21T11:34:39.320Z,15.10
2018-03-21T11:35:39.299Z,16.30
2018-03-21T11:36:39.283Z,16.30
2018-03-21T11:37:39.267Z,17.80
2018-03-21T11:38:39.240Z,18.50
2018-03-21T11:39:39.220Z,18.80
2018-03-21T11:40:39.199Z,16.80
2018-03-21T11:41:39.184Z,15.50
2018-03-21T11:42:39.164Z,17.50
2018-03-21T11:43:39.143Z,12.50
2018-03-21T11:44:39.123Z,14.90
2018-03-21T11:45:39.104Z,14.50
2018-03-21T11:46:39.102Z,15.00
2018-03-21T11:47:39.069Z,16.40
2018-03-21T11:48:39.050Z,12.10
2018-03-21T11:49:39.035Z,14.50
2018-03-21T11:50:39.014Z,12.50
2018-03-21T11:51:39.001Z,15.00
2018-03-21T11:52:38.979Z,13.80
2018-03-21T11:53:38.968Z,16.90
2018-03-21T11:54:38.954Z,13.80
2018-03-21T11:55:38.922Z,14.30
2018-03-21T11:56:38.912Z,15.10
2018-03-21T11:57:38.886Z,11.90
2018-03-21T11:58:38.980Z,14.40
2018-03-21T11:59:38.857Z,14.40
2018-03-21T12:00:38.835Z,12.20
2018-03-21T12:01:38.819Z,15.50
2018-03-21T12:02:38.810Z,12.00
2018-03-21T12:03:38.786Z,14.20
2018-03-21T12:04:38.766Z,12.00
2018-03-21T12:05:38.751Z,13.20
2018-03-21T12:06:38.749Z,12.80
2018-03-21T12:07:38.716Z,16.70
2018-03-21T12:08:38.737Z,14.50
2018-03-21T12:09:38.681Z,13.30
2018-03-21T12:10:38.670Z,16.30
2018-03-21T12:11:38.646Z,13.30
2018-03-21T12:12:38.636Z,13.00
2018-03-21T12:13:38.610Z,13.90
2018-03-21T12:14:38.623Z,12.60
2018-03-21T12:15:38.581Z,13.30
2018-03-21T12:16:38.564Z,12.90
2018-03-21T12:17:38.542Z,14.30
2018-03-21T12:18:38.530Z,14.70
2018-03-21T12:19:38.510Z,10.10
2018-03-21T12:20:38.492Z,11.00
2018-03-21T12:21:38.471Z,11.50
2018-03-21T12:22:38.455Z,14.90
2018-03-21T12:23:38.447Z,16.80
2018-03-21T12:24:38.422Z,13.40
2018-03-21T12:25:38.408Z,16.70
2018-03-21T12:26:38.380Z,18.70
2018-03-21T12:27:38.362Z,15.50
2018-03-21T12:28:38.346Z,15.20
2018-03-21T12:29:38.332Z,14.60
2018-03-21T12:30:38.313Z,15.50
2018-03-21T12:31:38.295Z,14.50
2018-03-21T12:32:38.268Z,14.50
2018-03-21T12:33:38.252Z,14.00
2018-03-21T12:34:38.241Z,15.20
2018-03-21T12:35:38.219Z,13.90
2018-03-21T12:36:38.199Z,13.50
2018-03-21T12:37:38.181Z,13.60
2018-03-21T12:38:38.159Z,16.50
2018-03-21T12:39:38.139Z,13.40
2018-03-21T12:40:38.133Z,14.90
2018-03-21T12:41:38.101Z,14.40
2018-03-21T12:42:38.093Z,14.50
2018-03-21T12:43:38.062Z,15.10
2018-03-21T12:44:38.238Z,33.80
2018-03-21T12:45:38.030Z,111.70
2018-03-21T12:46:38.006Z,44.80
2018-03-21T12:47:37.987Z,19.90
2018-03-21T12:48:37.970Z,21.00
2018-03-21T12:49:37.950Z,29.80
2018-03-21T12:50:37.961Z,52.20
2018-03-21T12:51:37.908Z,34.30
2018-03-21T12:52:37.906Z,26.50
2018-03-21T12:53:37.874Z,73.90
2018-03-21T12:54:37.858Z,19.50
2018-03-21T12:55:37.882Z,24.40
2018-03-21T12:56:37.818Z,15.80
2018-03-21T12:57:37.791Z,13.20
2018-03-21T12:58:37.780Z,13.60